Time;durP1;ratioP1;P1;durP2;ratioP2;P2;SDS_P1;SDS_P2;PMS_P1;PMS_P2;Temp;Humidity;BMP_temperature;BMP_pressure;BME280_temperature;BME280_humidity;BME280_pressure;Samples;Min_cycle;Max_cycle;Signal;HPM_P1;HPM_P2
2022/07/08 00:01:07;;;;;;;6.37;1.37;;;15.50;99.90;;;;;;4996415;28;20661;-78
2022/07/08 00:03:43;;;;;;;7.87;0.60;;;15.50;99.90;;;;;;4996802;28;20176;-78
2022/07/08 00:06:08;;;;;;;6.20;1.23;;;15.50;99.90;;;;;;4996432;28;20197;-79
2022/07/08 00:08:34;;;;;;;9.73;1.47;;;15.50;99.90;;;;;;4996790;28;20447;-79
2022/07/08 00:11:00;;;;;;;5.70;1.00;;;15.50;97.90;;;;;;4996500;28;20216;-79
2022/07/08 00:13:25;;;;;;;7.40;1.20;;;15.50;99.90;;;;;;4996578;28;20534;-79
2022/07/08 00:15:51;;;;;;;8.17;1.60;;;15.50;99.90;;;;;;4996533;28;20187;-79
2022/07/08 00:18:16;;;;;;;11.57;1.53;;;15.40;91.10;;;;;;4995330;28;20176;-79
2022/07/08 00:20:42;;;;;;;7.27;1.47;;;15.40;99.90;;;;;;4996169;28;20176;-79
2022/07/08 00:23:07;;;;;;;5.93;1.70;;;15.40;65.80;;;;;;4991951;28;20269;-79
2022/07/08 00:25:33;;;;;;;9.17;0.80;;;15.40;81.50;;;;;;4967794;28;20189;-80
2022/07/08 00:27:58;;;;;;;4.47;1.37;;;15.40;99.90;;;;;;4965788;28;20266;-79
2022/07/08 00:30:24;;;;;;;6.90;0.77;;;15.40;99.90;;;;;;4970103;28;20177;-78
2022/07/08 00:32:49;;;;;;;7.40;1.10;;;15.40;99.90;;;;;;4959408;28;20249;-79
2022/07/08 00:35:15;;;;;;;8.20;1.13;;;15.40;99.90;;;;;;4957351;29;20550;-79
2022/07/08 00:37:40;;;;;;;11.33;1.60;;;15.40;99.90;;;;;;4959377;28;20526;-78
2022/07/08 00:40:06;;;;;;;10.63;2.23;;;15.40;99.90;;;;;;4974574;28;20635;-79
2022/07/08 00:42:32;;;;;;;7.73;1.30;;;15.40;99.90;;;;;;4976378;28;20220;-79
2022/07/08 00:44:57;;;;;;;10.30;1.63;;;15.40;99.90;;;;;;4976270;28;20918;-79
2022/07/08 00:47:24;;;;;;;8.17;1.13;;;15.30;99.90;;;;;;4976312;28;20198;-79
2022/07/08 00:49:50;;;;;;;9.77;1.90;;;15.30;99.90;;;;;;4976356;28;20661;-79
2022/07/08 00:52:16;;;;;;;9.07;1.67;;;15.30;99.90;;;;;;4975869;28;20512;-79
2022/07/08 00:54:42;;;;;;;7.67;1.17;;;15.30;99.90;;;;;;4976244;28;20909;-79
2022/07/08 00:57:07;;;;;;;10.83;1.50;;;15.30;99.90;;;;;;4976187;28;20425;-79
2022/07/08 00:59:33;;;;;;;9.60;2.00;;;15.20;99.90;;;;;;4976039;28;20523;-79
2022/07/08 01:01:59;;;;;;;9.27;2.60;;;15.20;99.90;;;;;;4976066;28;20209;-79
2022/07/08 01:04:24;;;;;;;5.70;0.93;;;15.20;99.90;;;;;;4976084;28;20638;-78
2022/07/08 01:06:50;;;;;;;11.50;1.50;;;15.10;99.90;;;;;;4975679;28;20643;-78
2022/07/08 01:09:16;;;;;;;7.30;2.03;;;15.10;99.90;;;;;;4974597;28;20319;-80
2022/07/08 01:11:45;;;;;;;9.90;1.17;;;15.00;99.90;;;;;;4975126;28;20178;-80
2022/07/08 01:14:12;;;;;;;4.20;1.27;;;14.90;99.90;;;;;;4975861;28;20425;-80
2022/07/08 01:16:38;;;;;;;10.97;1.50;;;14.80;99.90;;;;;;4975861;28;20999;-79
2022/07/08 01:19:03;;;;;;;11.73;0.80;;;14.80;99.90;;;;;;4975770;28;20429;-81
2022/07/08 01:21:29;;;;;;;7.17;2.00;;;14.90;99.90;;;;;;4975440;28;20243;-81
2022/07/08 01:23:54;;;;;;;7.10;0.87;;;14.90;99.90;;;;;;4975784;28;20181;-81
2022/07/08 01:26:20;;;;;;;7.97;1.03;;;15.00;99.90;;;;;;4975566;28;20174;-78
2022/07/08 01:28:45;;;;;;;10.13;1.80;;;15.00;99.90;;;;;;4975515;28;20664;-80
2022/07/08 01:31:11;;;;;;;4.17;1.07;;;15.00;99.90;;;;;;4975559;28;20562;-80
2022/07/08 01:33:37;;;;;;;13.07;1.07;;;15.00;99.90;;;;;;4975428;28;20182;-78
2022/07/08 01:36:03;;;;;;;12.17;1.10;;;15.00;99.90;;;;;;4975097;28;20181;-79
2022/07/08 01:38:29;;;;;;;9.17;0.77;;;15.00;99.90;;;;;;4975422;28;20420;-81
2022/07/08 01:40:54;;;;;;;9.87;1.40;;;15.00;99.90;;;;;;4975360;28;20972;-81
2022/07/08 01:43:20;;;;;;;6.60;0.77;;;15.00;99.90;;;;;;4975088;28;20215;-79
2022/07/08 01:45:46;;;;;;;5.87;0.80;;;15.00;99.90;;;;;;4975230;28;20172;-81
2022/07/08 01:48:12;;;;;;;10.30;2.50;;;14.90;99.90;;;;;;4975289;28;20936;-79
2022/07/08 01:50:37;;;;;;;5.70;0.77;;;14.90;99.90;;;;;;4974957;28;20270;-81
2022/07/08 01:53:03;;;;;;;6.73;1.03;;;14.90;99.90;;;;;;4975126;28;20271;-80
2022/07/08 01:55:28;;;;;;;8.00;1.27;;;14.90;99.90;;;;;;4975166;28;20215;-81
2022/07/08 01:57:54;;;;;;;9.03;2.13;;;14.90;95.00;;;;;;4974954;28;20208;-79
2022/07/08 02:00:20;;;;;;;6.30;0.60;;;14.90;94.60;;;;;;4974868;28;20223;-80
2022/07/08 02:02:47;;;;;;;15.90;1.30;;;14.90;99.90;;;;;;4974969;28;20209;-78
2022/07/08 02:05:13;;;;;;;6.60;0.93;;;14.90;99.90;;;;;;4974534;28;20910;-82
2022/07/08 02:07:39;;;;;;;11.33;1.37;;;14.90;99.90;;;;;;4974991;28;20425;-79
2022/07/08 02:10:05;;;;;;;7.27;1.30;;;14.90;88.80;;;;;;4974756;28;20459;-81
2022/07/08 02:12:31;;;;;;;7.07;1.20;;;14.90;25.00;;;;;;4974717;28;20541;-81
2022/07/08 02:15:04;;;;;;;11.43;1.70;;;14.90;99.90;;;;;;4974748;28;20412;-82
2022/07/08 02:17:33;;;;;;;10.87;1.30;;;14.90;14.50;;;;;;4974865;28;20181;-80
2022/07/08 02:19:59;;;;;;;5.93;1.00;;;14.90;19.00;;;;;;4974698;28;20503;-82
2022/07/08 02:22:25;;;;;;;8.80;0.93;;;14.90;10.10;;;;;;4974004;28;20576;-78
2022/07/08 02:24:51;;;;;;;5.17;0.80;;;14.90;1.00;;;;;;4974580;28;20180;-80
2022/07/08 02:27:17;;;;;;;5.17;1.30;;;14.90;1.00;;;;;;4974591;28;20194;-80
2022/07/08 02:29:42;;;;;;;5.90;1.40;;;14.80;1.00;;;;;;4973363;28;20715;-80
2022/07/08 02:32:08;;;;;;;10.53;1.17;;;14.90;1.00;;;;;;4973232;28;20859;-79
2022/07/08 02:34:34;;;;;;;8.10;1.43;;;14.80;1.00;;;;;;4973259;28;20176;-80
2022/07/08 02:36:59;;;;;;;5.57;0.50;;;14.70;12.30;;;;;;4974094;28;20177;-80
2022/07/08 02:39:25;;;;;;;4.10;1.10;;;14.70;1.00;;;;;;4974373;28;20174;-79
2022/07/08 02:41:50;;;;;;;5.60;0.80;;;14.70;1.00;;;;;;4974284;28;20688;-79
2022/07/08 02:44:17;;;;;;;9.33;0.60;;;14.70;1.00;;;;;;4974366;28;20168;-78
2022/07/08 02:46:43;;;;;;;6.73;1.43;;;14.70;1.00;;;;;;4974231;28;20585;-78
2022/07/08 02:49:09;;;;;;;4.67;0.80;;;14.80;1.00;;;;;;4974392;28;20413;-79
2022/07/08 02:51:35;;;;;;;7.23;1.23;;;14.80;1.00;;;;;;4973883;28;20220;-80
2022/07/08 02:54:01;;;;;;;5.80;1.03;;;14.80;1.00;;;;;;4974075;28;20311;-80
2022/07/08 02:56:28;;;;;;;6.23;0.93;;;14.80;1.00;;;;;;4974218;28;20888;-82
2022/07/08 02:58:53;;;;;;;6.63;0.67;;;14.80;1.00;;;;;;4974115;28;20919;-81
2022/07/08 03:01:19;;;;;;;7.20;1.13;;;14.80;1.00;;;;;;4974006;28;20415;-78
2022/07/08 03:03:44;;;;;;;7.70;1.30;;;14.80;1.00;;;;;;4974047;28;20342;-80
2022/07/08 03:06:10;;;;;;;4.60;0.93;;;14.80;1.00;;;;;;4973813;28;20180;-81
2022/07/08 03:08:35;;;;;;;5.93;1.37;;;14.80;1.00;;;;;;4974027;28;20260;-80
2022/07/08 03:11:01;;;;;;;5.17;0.60;;;14.80;1.00;;;;;;4974001;28;20554;-81
2022/07/08 03:13:26;;;;;;;4.87;0.90;;;14.80;1.00;;;;;;4974179;28;20168;-83
2022/07/08 03:15:55;;;;;;;7.63;0.73;;;14.80;1.00;;;;;;4974007;28;20262;-79
2022/07/08 03:18:20;;;;;;;6.90;1.20;;;14.80;1.00;;;;;;4973954;28;20195;-82
2022/07/08 03:20:46;;;;;;;4.77;0.40;;;14.80;1.00;;;;;;4973586;28;20921;-79
2022/07/08 03:23:12;;;;;;;6.83;1.07;;;14.90;1.00;;;;;;4973785;28;20218;-78
2022/07/08 03:25:37;;;;;;;10.77;1.20;;;14.80;1.00;;;;;;4973933;28;20177;-79
2022/07/08 03:28:03;;;;;;;6.17;1.23;;;14.80;1.00;;;;;;4973973;28;20232;-81
2022/07/08 03:30:37;;;;;;;6.20;1.00;;;14.80;1.00;;;;;;4973884;28;20209;-78
2022/07/08 03:33:03;;;;;;;12.03;1.53;;;14.80;1.00;;;;;;4973767;28;20608;-79
2022/07/08 03:35:28;;;;;;;5.50;0.53;;;14.80;1.00;;;;;;4975847;28;20496;-81
2022/07/08 03:37:54;;;;;;;6.57;0.70;;;14.80;5.30;;;;;;4977677;28;20174;-81
2022/07/08 03:43:03;;;;;;;7.07;0.80;;;14.80;1.00;;;;;;4977609;28;20215;-81
2022/07/08 03:45:29;;;;;;;8.50;1.10;;;14.90;1.00;;;;;;4977538;28;20412;-81
2022/07/08 03:47:56;;;;;;;4.73;1.10;;;14.90;1.00;;;;;;4977539;28;20216;-81
2022/07/08 03:50:22;;;;;;;7.10;0.57;;;14.80;1.00;;;;;;4977158;28;20245;-82
2022/07/08 03:52:48;;;;;;;4.90;1.20;;;14.80;1.00;;;;;;4977373;28;20848;-81
2022/07/08 03:55:14;;;;;;;7.60;1.10;;;14.80;1.00;;;;;;4977360;28;20595;-81
2022/07/08 03:57:39;;;;;;;3.50;1.00;;;14.80;1.00;;;;;;4977211;28;20797;-81
2022/07/08 04:00:07;;;;;;;9.90;0.70;;;14.80;10.20;;;;;;4977369;28;20414;-81
2022/07/08 04:02:33;;;;;;;4.63;1.60;;;14.80;45.30;;;;;;4977094;28;20212;-82
2022/07/08 04:04:59;;;;;;;6.63;1.20;;;14.80;1.00;;;;;;4976961;28;20425;-80
2022/07/08 04:07:24;;;;;;;7.40;1.00;;;14.90;15.80;;;;;;4977167;28;20432;-81
2022/07/08 04:09:50;;;;;;;10.20;1.17;;;14.90;44.80;;;;;;4977021;28;20304;-81
2022/07/08 04:12:16;;;;;;;6.17;1.20;;;14.80;1.00;;;;;;4977012;28;20209;-81
2022/07/08 04:14:42;;;;;;;6.23;0.40;;;14.80;27.60;;;;;;4976996;28;20195;-82
2022/07/08 04:17:07;;;;;;;6.30;1.20;;;14.80;45.40;;;;;;4976936;28;20420;-81
2022/07/08 04:19:33;;;;;;;6.90;0.77;;;14.80;93.00;;;;;;4964388;28;20190;-84
2022/07/08 04:21:58;;;;;;;7.60;0.90;;;14.90;20.50;;;;;;4957322;29;20745;-82
2022/07/08 04:24:23;;;;;;;9.40;1.47;;;14.90;1.00;;;;;;4957505;29;20175;-79
2022/07/08 04:26:49;;;;;;;10.43;1.27;;;15.00;43.40;;;;;;4957471;29;20673;-81
2022/07/08 04:29:14;;;;;;;6.30;0.83;;;15.00;9.10;;;;;;4957335;29;20178;-82
2022/07/08 04:31:40;;;;;;;7.50;1.07;;;15.00;79.90;;;;;;4957466;29;20236;-81
2022/07/08 04:34:05;;;;;;;8.53;0.73;;;15.00;49.30;;;;;;4957404;29;20665;-82
2022/07/08 04:36:31;;;;;;;5.50;1.83;;;15.10;99.80;;;;;;4956986;29;20174;-82
2022/07/08 04:38:56;;;;;;;14.27;1.53;;;15.20;57.30;;;;;;4957289;29;20182;-80
2022/07/08 04:41:22;;;;;;;5.17;0.73;;;15.20;19.70;;;;;;4957163;29;20171;-81
2022/07/08 04:43:47;;;;;;;4.77;1.10;;;15.30;61.90;;;;;;4957193;29;20186;-81
2022/07/08 04:46:13;;;;;;;6.27;1.40;;;15.20;12.60;;;;;;4955784;28;20695;-82
2022/07/08 04:48:40;;;;;;;9.33;0.93;;;15.30;92.40;;;;;;4955697;29;20178;-81
2022/07/08 04:51:06;;;;;;;3.60;0.50;;;15.40;63.90;;;;;;4956854;29;20443;-80
2022/07/08 04:53:31;;;;;;;8.43;1.23;;;15.50;1.00;;;;;;4957049;29;20427;-80
2022/07/08 04:55:57;;;;;;;10.40;3.30;;;15.50;1.00;;;;;;4956950;29;20171;-81
2022/07/08 04:58:22;;;;;;;9.77;0.90;;;15.60;1.00;;;;;;4956822;29;20636;-81
2022/07/08 05:00:48;;;;;;;4.87;1.33;;;15.50;1.00;;;;;;4955623;29;20188;-82
2022/07/08 05:03:13;;;;;;;12.23;1.67;;;15.50;13.50;;;;;;4956865;29;20245;-82
2022/07/08 05:05:39;;;;;;;5.23;1.20;;;15.60;1.00;;;;;;4956482;29;20680;-81
2022/07/08 05:08:05;;;;;;;7.03;0.83;;;15.70;10.60;;;;;;4956835;29;20201;-82
2022/07/08 05:10:30;;;;;;;7.87;1.63;;;15.90;1.00;;;;;;4955352;29;20292;-81
2022/07/08 05:12:57;;;;;;;8.90;0.97;;;16.10;1.00;;;;;;4956472;29;20595;-81
2022/07/08 05:15:23;;;;;;;2.80;0.70;;;16.10;1.00;;;;;;4956627;29;20574;-81
2022/07/08 05:17:51;;;;;;;5.77;1.30;;;16.10;1.00;;;;;;4956438;28;20790;-81
2022/07/08 05:20:16;;;;;;;9.63;1.23;;;16.10;1.00;;;;;;4956148;29;20423;-82
2022/07/08 05:22:42;;;;;;;10.10;1.60;;;16.00;1.00;;;;;;4956405;29;20505;-84
2022/07/08 05:25:08;;;;;;;6.07;0.70;;;15.90;1.00;;;;;;4956430;29;20178;-83
2022/07/08 05:27:35;;;;;;;6.90;1.27;;;16.00;1.00;;;;;;4956458;29;20174;-82
2022/07/08 05:30:01;;;;;;;4.40;0.77;;;16.30;1.00;;;;;;4956314;29;20927;-83
2022/07/08 05:32:26;;;;;;;7.30;0.43;;;16.30;1.00;;;;;;4956248;29;20415;-83
2022/07/08 05:34:52;;;;;;;7.20;0.80;;;16.40;1.00;;;;;;4955802;29;20454;-81
2022/07/08 05:37:18;;;;;;;4.57;0.60;;;16.50;1.00;;;;;;4956113;29;20180;-81
2022/07/08 05:39:43;;;;;;;8.20;0.63;;;16.60;1.00;;;;;;4956434;29;20175;-81
2022/07/08 05:42:10;;;;;;;7.43;0.93;;;16.60;1.00;;;;;;4955818;29;20246;-79
2022/07/08 05:44:37;;;;;;;2.10;0.40;;;16.90;99.90;;;;;;4956053;29;20254;-83
2022/07/08 05:47:04;;;;;;;7.27;1.17;;;16.70;99.90;;;;;;4955980;29;20467;-82
2022/07/08 05:49:30;;;;;;;9.53;1.63;;;16.40;1.00;;;;;;4955930;29;20480;-82
2022/07/08 05:51:55;;;;;;;7.37;0.63;;;16.50;1.00;;;;;;4955518;29;20436;-80
2022/07/08 05:54:21;;;;;;;4.27;0.97;;;16.70;99.90;;;;;;4955967;29;20421;-81
2022/07/08 05:56:46;;;;;;;4.93;0.57;;;16.90;99.90;;;;;;4955411;28;20178;-81
2022/07/08 05:59:12;;;;;;;7.27;0.53;;;17.00;99.90;;;;;;4955637;29;20184;-80
2022/07/08 06:01:37;;;;;;;6.60;1.27;;;17.30;1.00;;;;;;4955720;29;20194;-80
2022/07/08 06:04:03;;;;;;;5.43;0.73;;;17.50;99.90;;;;;;4954548;29;20186;-80
2022/07/08 06:06:29;;;;;;;6.73;0.70;;;17.50;1.00;;;;;;4955339;29;20187;-80
2022/07/08 06:08:54;;;;;;;9.50;1.20;;;17.50;1.00;;;;;;4955372;29;20187;-80
2022/07/08 06:11:19;;;;;;;4.80;0.63;;;17.80;1.00;;;;;;4955613;29;20200;-79
2022/07/08 06:13:46;;;;;;;6.43;0.90;;;17.60;99.90;;;;;;4955417;29;20180;-80
2022/07/08 06:16:12;;;;;;;7.60;1.00;;;17.40;1.00;;;;;;4955353;29;20631;-80
2022/07/08 06:18:37;;;;;;;6.10;1.03;;;17.20;69.70;;;;;;4955413;29;20454;-80
2022/07/08 06:21:03;;;;;;;4.23;0.80;;;17.10;98.80;;;;;;4954918;29;20211;-80
2022/07/08 06:23:29;;;;;;;5.97;0.53;;;17.00;99.90;;;;;;4953638;29;20209;-79
2022/07/08 06:25:54;;;;;;;7.33;0.40;;;17.10;99.90;;;;;;4954608;29;20630;-79
2022/07/08 06:28:20;;;;;;;5.80;0.67;;;17.50;1.00;;;;;;4954340;29;20211;-79
2022/07/08 06:30:45;;;;;;;4.73;0.93;;;17.50;99.90;;;;;;4954088;29;20222;-79
2022/07/08 06:33:11;;;;;;;6.10;1.10;;;17.30;1.00;;;;;;4955479;29;20213;-80
2022/07/08 06:35:36;;;;;;;9.87;0.63;;;17.40;99.90;;;;;;4955088;29;20179;-79
2022/07/08 06:38:02;;;;;;;5.87;0.93;;;17.30;99.90;;;;;;4955401;29;20180;-79
2022/07/08 06:40:28;;;;;;;10.30;1.40;;;17.40;99.90;;;;;;4955302;29;20178;-79
2022/07/08 06:42:53;;;;;;;5.03;0.80;;;17.20;1.00;;;;;;4953909;29;20216;-79
2022/07/08 06:45:19;;;;;;;4.10;0.63;;;17.40;99.90;;;;;;4955228;29;20648;-79
2022/07/08 06:47:45;;;;;;;5.77;1.20;;;18.10;1.00;;;;;;4954003;29;20187;-79
2022/07/08 06:50:11;;;;;;;7.47;1.53;;;18.70;1.00;;;;;;4954849;29;20201;-81
2022/07/08 06:52:37;;;;;;;5.63;1.10;;;19.60;1.00;;;;;;4955176;29;20455;-79
2022/07/08 06:55:03;;;;;;;4.13;0.33;;;19.40;1.00;;;;;;4955159;29;20499;-79
2022/07/08 06:57:29;;;;;;;9.50;0.80;;;19.80;1.00;;;;;;4955109;29;20521;-79
2022/07/08 06:59:55;;;;;;;13.03;1.30;;;21.50;99.90;;;;;;4953879;29;20418;-79
2022/07/08 07:02:23;;;;;;;4.83;0.70;;;20.80;99.90;;;;;;4955028;29;20223;-80
2022/07/08 07:04:49;;;;;;;4.40;0.77;;;21.00;99.90;;;;;;4954604;29;20187;-79
2022/07/08 07:07:15;;;;;;;6.50;0.87;;;22.40;99.90;;;;;;4954913;29;20512;-79
2022/07/08 07:09:40;;;;;;;5.00;1.50;;;23.30;94.60;;;;;;4954064;29;20280;-81
2022/07/08 07:12:06;;;;;;;6.63;1.33;;;23.70;57.50;;;;;;4954903;29;20182;-83
2022/07/08 07:14:33;;;;;;;4.33;0.60;;;23.40;51.80;;;;;;4954848;29;20171;-84
2022/07/08 07:16:59;;;;;;;5.30;0.80;;;24.50;41.00;;;;;;4954857;29;20444;-85
2022/07/08 07:19:25;;;;;;;3.70;0.70;;;23.60;24.90;;;;;;4954579;29;20428;-82
2022/07/08 07:21:51;;;;;;;5.20;0.67;;;23.70;40.10;;;;;;4954841;29;20557;-80
2022/07/08 07:24:16;;;;;;;3.13;0.40;;;21.10;89.70;;;;;;4954829;29;20521;-84
2022/07/08 07:26:42;;;;;;;6.17;1.97;;;19.70;99.90;;;;;;4954791;29;20581;-84
2022/07/08 07:29:08;;;;;;;7.87;1.97;;;19.20;1.00;;;;;;4954705;29;20183;-84
2022/07/08 07:31:34;;;;;;;3.27;0.97;;;20.40;99.90;;;;;;4954696;29;20402;-82
2022/07/08 07:34:00;;;;;;;3.83;0.60;;;20.20;99.90;;;;;;4954825;29;20590;-84
2022/07/08 07:36:26;;;;;;;4.73;0.90;;;19.80;99.90;;;;;;4954325;29;20484;-84
2022/07/08 07:38:51;;;;;;;4.10;0.40;;;19.70;1.00;;;;;;4954684;29;20255;-84
2022/07/08 07:41:17;;;;;;;3.80;0.73;;;19.80;1.00;;;;;;4954595;29;20637;-83
2022/07/08 07:43:42;;;;;;;4.73;0.90;;;19.20;99.90;;;;;;4954635;29;20187;-84
2022/07/08 07:46:08;;;;;;;3.40;0.60;;;18.80;1.00;;;;;;4954674;29;20174;-85
2022/07/08 07:48:33;;;;;;;7.53;0.80;;;18.40;99.90;;;;;;4954641;29;20223;-79
2022/07/08 07:50:59;;;;;;;4.63;0.43;;;18.10;99.90;;;;;;4953035;29;20614;-83
2022/07/08 07:53:25;;;;;;;6.57;0.80;;;18.00;1.00;;;;;;4954650;29;20173;-84
2022/07/08 07:55:50;;;;;;;5.70;0.77;;;17.80;1.00;;;;;;4954532;29;20181;-83
2022/07/08 07:58:16;;;;;;;6.30;0.93;;;17.60;99.90;;;;;;4953312;29;20424;-82
2022/07/08 08:00:41;;;;;;;6.07;0.43;;;17.50;1.00;;;;;;4954457;29;20188;-83
2022/07/08 08:03:07;;;;;;;3.97;0.80;;;17.50;1.00;;;;;;4954365;29;20211;-82
2022/07/08 08:05:32;;;;;;;4.33;0.87;;;17.40;1.00;;;;;;4952894;29;20222;-83
2022/07/08 08:07:59;;;;;;;6.87;1.03;;;17.50;1.00;;;;;;4954399;29;20260;-83
2022/07/08 08:10:24;;;;;;;2.87;1.03;;;17.60;1.00;;;;;;4954318;29;20227;-82
2022/07/08 08:12:50;;;;;;;3.40;0.57;;;17.60;1.00;;;;;;4954405;29;20415;-82
2022/07/08 08:15:15;;;;;;;4.70;1.33;;;17.60;1.00;;;;;;4954370;29;20207;-84
2022/07/08 08:17:41;;;;;;;5.63;1.20;;;17.40;1.00;;;;;;4954397;29;20255;-84
2022/07/08 08:20:09;;;;;;;4.30;0.90;;;17.30;1.00;;;;;;4954272;28;20212;-85
2022/07/08 08:22:38;;;;;;;7.30;0.73;;;17.20;1.00;;;;;;4957625;28;20490;-83
2022/07/08 08:25:09;;;;;;;4.07;0.83;;;17.20;1.00;;;;;;4957703;29;20912;-83
2022/07/08 08:27:40;;;;;;;6.87;2.17;;;17.20;17.50;;;;;;4957717;29;20509;-84
2022/07/08 08:30:07;;;;;;;6.03;1.03;;;17.20;22.00;;;;;;4957595;29;20423;-80
2022/07/08 08:32:33;;;;;;;3.07;0.77;;;17.20;99.90;;;;;;4957593;29;20775;-84
2022/07/08 08:34:58;;;;;;;4.97;1.60;;;17.30;99.90;;;;;;4957201;29;20430;-80
2022/07/08 08:37:25;;;;;;;3.03;0.80;;;17.30;99.90;;;;;;4957521;29;20638;-81
2022/07/08 08:39:51;;;;;;;8.20;1.80;;;17.20;99.90;;;;;;4957470;29;20643;-79
2022/07/08 08:42:18;;;;;;;7.17;1.13;;;17.00;99.90;;;;;;4957377;29;20480;-80
2022/07/08 08:44:43;;;;;;;5.67;1.97;;;17.10;99.90;;;;;;4957378;29;20496;-80
2022/07/08 08:47:11;;;;;;;6.43;1.20;;;17.00;99.90;;;;;;4957403;29;20850;-80
2022/07/08 08:49:39;;;;;;;6.17;1.00;;;16.80;99.90;;;;;;4956940;29;20188;-79
2022/07/08 08:52:06;;;;;;;17.30;2.83;;;16.80;99.90;;;;;;4957134;29;20424;-82
2022/07/08 08:54:34;;;;;;;10.70;1.50;;;16.80;99.90;;;;;;4957190;29;20453;-80
2022/07/08 08:57:01;;;;;;;9.83;1.47;;;16.60;99.90;;;;;;4957148;29;20437;-79
2022/07/08 08:59:28;;;;;;;7.50;1.57;;;16.50;99.90;;;;;;4957114;29;20415;-81
2022/07/08 09:01:55;;;;;;;4.17;1.17;;;16.40;99.90;;;;;;4956860;29;20455;-80
2022/07/08 09:04:22;;;;;;;8.07;1.57;;;16.50;99.90;;;;;;4956684;29;21042;-86
2022/07/08 09:06:47;;;;;;;8.43;2.37;;;16.40;99.90;;;;;;4959740;28;20439;-84
2022/07/08 09:09:13;;;;;;;5.67;2.03;;;16.50;99.90;;;;;;4979856;28;20467;-81
2022/07/08 09:11:40;;;;;;;7.33;2.03;;;16.70;99.90;;;;;;4976211;28;20181;-79
2022/07/08 09:14:17;;;;;;;7.47;1.83;;;16.80;99.90;;;;;;4967261;28;20224;-79
2022/07/08 09:17:12;;;;;;;5.40;1.63;;;16.90;99.90;;;;;;4956758;29;20502;-78
2022/07/08 09:19:40;;;;;;;10.87;2.70;;;16.70;99.90;;;;;;4956100;29;20899;-84
2022/07/08 09:22:07;;;;;;;5.43;2.10;;;16.50;99.90;;;;;;4956389;29;20466;-82
2022/07/08 09:24:33;;;;;;;6.97;1.83;;;16.50;99.90;;;;;;4956458;29;20421;-84
2022/07/08 09:27:07;;;;;;;8.40;1.87;;;16.50;99.90;;;;;;4956427;29;20777;-85
2022/07/08 09:29:32;;;;;;;6.33;1.73;;;16.80;99.90;;;;;;4956399;29;20232;-82
2022/07/08 09:32:09;;;;;;;5.23;1.20;;;17.00;99.90;;;;;;4955423;28;20868;-79
2022/07/08 09:34:36;;;;;;;3.70;1.87;;;17.20;99.90;;;;;;4956022;29;20531;-85
2022/07/08 09:37:13;;;;;;;7.93;1.83;;;17.10;99.90;;;;;;4956062;28;20419;-84
2022/07/08 09:39:39;;;;;;;6.93;1.93;;;17.10;99.90;;;;;;4956117;29;20423;-84
2022/07/08 09:42:09;;;;;;;7.20;1.70;;;17.20;99.90;;;;;;4956157;29;20471;-80
2022/07/08 09:44:36;;;;;;;6.63;2.10;;;17.10;99.90;;;;;;4956086;29;20181;-82
2022/07/08 09:47:12;;;;;;;1.40;0.90;;;17.40;99.90;;;;;;4955905;29;20966;-83
2022/07/08 09:49:43;;;;;;;3.87;1.00;;;17.70;99.90;;;;;;4955749;29;20473;-84
2022/07/08 09:52:10;;;;;;;4.10;0.77;;;18.00;99.90;;;;;;4955991;29;20463;-84
2022/07/08 09:54:36;;;;;;;2.70;0.77;;;18.00;99.90;;;;;;4955877;29;20416;-82
2022/07/08 09:57:04;;;;;;;2.97;1.47;;;17.90;99.90;;;;;;4955731;29;20494;-82
2022/07/08 09:59:31;;;;;;;7.43;1.40;;;17.70;99.90;;;;;;4955848;29;20429;-82
2022/07/08 10:01:58;;;;;;;6.07;0.63;;;17.60;99.90;;;;;;4955729;29;20470;-79
2022/07/08 10:04:24;;;;;;;2.10;1.00;;;17.50;99.90;;;;;;4955390;29;20415;-80
2022/07/08 10:06:50;;;;;;;3.80;0.80;;;17.50;99.90;;;;;;4955615;29;20424;-81
2022/07/08 10:09:17;;;;;;;2.60;0.83;;;17.40;99.90;;;;;;4955276;29;20462;-80
2022/07/08 10:11:44;;;;;;;4.37;1.13;;;17.40;99.90;;;;;;4955625;29;20427;-80
2022/07/08 10:14:10;;;;;;;3.07;0.83;;;17.30;99.90;;;;;;4955528;29;20425;-82
2022/07/08 10:16:38;;;;;;;3.93;0.37;;;17.30;99.90;;;;;;4955614;29;20433;-78
2022/07/08 10:19:09;;;;;;;2.87;0.47;;;17.30;99.90;;;;;;4955093;29;20192;-86
2022/07/08 10:21:38;;;;;;;4.60;0.40;;;17.40;99.90;;;;;;4955262;29;20488;-79
2022/07/08 10:24:07;;;;;;;2.20;0.60;;;17.50;99.90;;;;;;4953327;29;20435;-79
2022/07/08 10:26:38;;;;;;;5.00;0.67;;;17.50;99.90;;;;;;4953412;28;20947;-79
2022/07/08 10:29:09;;;;;;;1.83;0.60;;;17.70;99.90;;;;;;4954219;29;20431;-80
2022/07/08 10:31:52;;;;;;;1.23;0.20;;;18.00;99.90;;;;;;4955648;29;20411;-80
2022/07/08 10:34:20;;;;;;;1.10;0.83;;;17.70;99.90;;;;;;4955118;29;20943;-79
2022/07/08 10:36:51;;;;;;;3.20;1.30;;;18.00;99.90;;;;;;4955218;29;20913;-80
2022/07/08 10:39:24;;;;;;;3.43;0.97;;;18.00;99.90;;;;;;4955384;29;20511;-80
2022/07/08 10:42:00;;;;;;;1.60;0.50;;;18.00;99.90;;;;;;4955145;29;20455;-80
2022/07/08 10:44:44;;;;;;;1.30;0.60;;;17.90;99.90;;;;;;4953892;28;20429;-79
2022/07/08 10:47:14;;;;;;;1.37;0.63;;;18.10;99.90;;;;;;4954623;29;20422;-78
2022/07/08 10:49:41;;;;;;;1.20;0.70;;;18.30;99.90;;;;;;4953293;29;20427;-79
2022/07/08 10:52:06;;;;;;;1.13;0.50;;;18.30;99.90;;;;;;4955102;29;20494;-82
2022/07/08 10:54:36;;;;;;;1.03;0.50;;;18.20;99.90;;;;;;4954976;29;21011;-80
2022/07/08 10:57:07;;;;;;;0.80;0.40;;;18.30;99.90;;;;;;4954974;29;20168;-79
2022/07/08 10:59:37;;;;;;;1.43;0.33;;;18.30;99.90;;;;;;4955153;29;20903;-79
2022/07/08 11:02:16;;;;;;;1.03;0.40;;;18.40;99.90;;;;;;4954853;29;20469;-83
2022/07/08 11:04:53;;;;;;;1.73;0.30;;;18.40;99.90;;;;;;4954677;29;20871;-80
2022/07/08 11:07:28;;;;;;;1.33;0.30;;;18.20;99.90;;;;;;4954991;29;20416;-79
2022/07/08 11:10:06;;;;;;;1.00;0.37;;;18.20;99.90;;;;;;4954730;29;20609;-87
2022/07/08 11:12:36;;;;;;;3.47;0.60;;;18.60;99.90;;;;;;4955052;29;20945;-84
2022/07/08 11:15:05;;;;;;;3.60;0.43;;;18.20;99.90;;;;;;4954814;29;20772;-85
2022/07/08 11:17:33;;;;;;;1.70;0.67;;;18.20;99.90;;;;;;4953564;29;20467;-84
2022/07/08 11:20:04;;;;;;;4.20;0.63;;;18.20;99.90;;;;;;4954476;29;20937;-88
2022/07/08 11:22:34;;;;;;;2.50;0.83;;;18.40;99.90;;;;;;4954792;28;20464;-82
2022/07/08 11:25:00;;;;;;;1.03;0.57;;;19.80;99.90;;;;;;4954746;29;20443;-85
2022/07/08 11:27:31;;;;;;;2.20;0.63;;;19.90;1.00;;;;;;4954893;29;20903;-83
2022/07/08 11:29:57;;;;;;;1.73;0.37;;;20.20;1.00;;;;;;4954695;29;20174;-80
2022/07/08 11:32:24;;;;;;;6.27;1.03;;;19.80;1.00;;;;;;4954734;29;20415;-79
2022/07/08 11:34:53;;;;;;;2.00;0.50;;;20.10;81.50;;;;;;4954296;29;20784;-83
2022/07/08 11:37:18;;;;;;;2.00;1.07;;;20.00;1.00;;;;;;4954639;29;20819;-85
2022/07/08 11:39:45;;;;;;;1.70;0.40;;;21.20;1.00;;;;;;4954697;29;20486;-84
2022/07/08 11:42:12;;;;;;;1.97;0.50;;;22.30;1.00;;;;;;4954580;29;20480;-87
2022/07/08 11:44:38;;;;;;;1.37;0.27;;;21.80;1.00;;;;;;4954635;29;20428;-82
2022/07/08 11:47:04;;;;;;;0.90;0.30;;;22.30;99.90;;;;;;4954651;29;20480;-86
2022/07/08 11:49:31;;;;;;;1.43;0.50;;;23.00;99.90;;;;;;4954275;29;20504;-83
2022/07/08 11:51:58;;;;;;;1.83;0.30;;;23.30;1.00;;;;;;4954576;29;20428;-85
2022/07/08 11:54:25;;;;;;;1.50;0.30;;;24.00;1.00;;;;;;4954522;29;20471;-85
2022/07/08 11:56:56;;;;;;;1.60;0.20;;;23.70;1.00;;;;;;4957483;28;20416;-85
2022/07/08 11:59:35;;;;;;;1.53;0.30;;;23.70;1.00;;;;;;4958366;29;20515;-85
2022/07/08 12:02:02;;;;;;;1.30;0.27;;;22.80;1.00;;;;;;4958126;29;20476;-86
2022/07/08 12:04:29;;;;;;;1.20;0.20;;;22.50;1.00;;;;;;4957893;29;20419;-86
2022/07/08 12:06:56;;;;;;;1.33;0.30;;;21.90;1.00;;;;;;4958022;29;20424;-85
2022/07/08 12:09:23;;;;;;;2.97;0.70;;;22.50;1.00;;;;;;4956551;29;20999;-88
2022/07/08 12:11:51;;;;;;;1.50;0.40;;;22.40;99.90;;;;;;4958015;29;20872;-87
2022/07/08 12:14:18;;;;;;;1.23;0.30;;;22.50;1.00;;;;;;4957870;29;20416;-86
2022/07/08 12:16:56;;;;;;;1.37;0.27;;;22.30;99.90;;;;;;4957934;29;20956;-87
2022/07/08 12:19:34;;;;;;;2.93;0.67;;;21.80;1.00;;;;;;4957476;29;20459;-86
2022/07/08 12:22:01;;;;;;;1.37;0.23;;;22.60;99.90;;;;;;4957587;28;20510;-82
2022/07/08 12:24:32;;;;;;;1.70;0.37;;;21.90;99.90;;;;;;4971444;28;20431;-85
2022/07/08 12:26:59;;;;;;;1.73;0.40;;;23.30;99.90;;;;;;4976795;28;20495;-86
2022/07/08 12:29:26;;;;;;;2.20;0.60;;;22.90;17.70;;;;;;4976789;28;20420;-84
2022/07/08 12:31:52;;;;;;;2.43;0.73;;;23.30;5.70;;;;;;4976761;28;20420;-82
2022/07/08 12:34:20;;;;;;;2.10;0.40;;;23.60;58.50;;;;;;4976386;28;20424;-84
2022/07/08 12:36:46;;;;;;;4.60;0.93;;;23.70;1.00;;;;;;4976642;28;20416;-82
2022/07/08 12:39:19;;;;;;;2.70;0.30;;;24.60;1.00;;;;;;4976662;28;20434;-80
2022/07/08 12:42:01;;;;;;;1.67;0.27;;;23.70;99.90;;;;;;4976460;28;20514;-83
2022/07/08 12:44:50;;;;;;;3.53;0.50;;;23.90;99.90;;;;;;4975181;28;20959;-80
2022/07/08 12:47:15;;;;;;;2.90;0.60;;;24.40;99.90;;;;;;4970762;28;20937;-81
2022/07/08 12:49:42;;;;;;;2.60;0.40;;;24.90;99.90;;;;;;4976080;28;20416;-84
2022/07/08 12:52:10;;;;;;;2.50;0.50;;;25.20;99.90;;;;;;4976342;28;20172;-83